sensor_id;sensor_type;location;lat;lon;timestamp;pressure;altitude;pressure_sealevel;temperature;humidity
71105;BME280;58760;48.716;8.962;2023-05-11T00:02:17;96277.44;;;11.13;90.88
71105;BME280;58760;48.716;8.962;2023-05-11T00:04:43;96279.53;;;11.02;90.45
71105;BME280;58760;48.716;8.962;2023-05-11T00:07:08;96274.69;;;10.91;90.99
71105;BME280;58760;48.716;8.962;2023-05-11T00:09:33;96276.50;;;10.91;91.98
71105;BME280;58760;48.716;8.962;2023-05-11T00:12:00;96275.88;;;10.89;91.78
71105;BME280;58760;48.716;8.962;2023-05-11T00:14:27;96274.22;;;10.88;92.11
71105;BME280;58760;48.716;8.962;2023-05-11T00:16:52;96274.59;;;10.85;91.77
71105;BME280;58760;48.716;8.962;2023-05-11T00:19:17;96277.88;;;10.87;91.58
71105;BME280;58760;48.716;8.962;2023-05-11T00:21:43;96272.56;;;10.87;91.34
71105;BME280;58760;48.716;8.962;2023-05-11T00:24:09;96275.22;;;10.87;90.55
71105;BME280;58760;48.716;8.962;2023-05-11T00:26:34;96273.84;;;10.91;90.13
71105;BME280;58760;48.716;8.962;2023-05-11T00:29:00;96278.00;;;11.08;89.48
71105;BME280;58760;48.716;8.962;2023-05-11T00:31:25;96270.66;;;11.10;88.52
71105;BME280;58760;48.716;8.962;2023-05-11T00:33:51;96270.88;;;11.09;89.59
71105;BME280;58760;48.716;8.962;2023-05-11T00:36:19;96272.13;;;10.98;89.78
71105;BME280;58760;48.716;8.962;2023-05-11T00:38:44;96274.69;;;10.91;89.77
71105;BME280;58760;48.716;8.962;2023-05-11T00:41:10;96266.41;;;10.86;89.91
71105;BME280;58760;48.716;8.962;2023-05-11T00:43:35;96270.56;;;10.89;90.73
71105;BME280;58760;48.716;8.962;2023-05-11T00:46:01;96266.41;;;10.86;90.05
71105;BME280;58760;48.716;8.962;2023-05-11T00:48:27;96261.47;;;10.83;90.76
71105;BME280;58760;48.716;8.962;2023-05-11T00:50:53;96258.66;;;10.85;91.36
71105;BME280;58760;48.716;8.962;2023-05-11T00:53:18;96265.63;;;10.86;90.26
71105;BME280;58760;48.716;8.962;2023-05-11T00:55:44;96264.78;;;10.85;91.75
71105;BME280;58760;48.716;8.962;2023-05-11T00:58:09;96260.56;;;10.91;90.08
71105;BME280;58760;48.716;8.962;2023-05-11T01:00:35;96257.47;;;10.87;90.83
71105;BME280;58760;48.716;8.962;2023-05-11T01:03:01;96267.63;;;10.84;91.11
71105;BME280;58760;48.716;8.962;2023-05-11T01:05:33;96261.00;;;10.80;92.02
71105;BME280;58760;48.716;8.962;2023-05-11T01:08:07;96264.69;;;10.79;92.78
71105;BME280;58760;48.716;8.962;2023-05-11T01:11:50;96271.63;;;10.80;92.04
71105;BME280;58760;48.716;8.962;2023-05-11T01:13:49;96266.97;;;10.82;91.09
71105;BME280;58760;48.716;8.962;2023-05-11T01:16:20;96269.38;;;10.91;91.44
71105;BME280;58760;48.716;8.962;2023-05-11T01:18:59;96259.47;;;10.85;92.14
71105;BME280;58760;48.716;8.962;2023-05-11T01:21:29;96256.53;;;10.80;93.29
71105;BME280;58760;48.716;8.962;2023-05-11T01:24:27;96256.72;;;10.79;93.52
71105;BME280;58760;48.716;8.962;2023-05-11T01:32:30;96251.22;;;10.80;91.73
71105;BME280;58760;48.716;8.962;2023-05-11T01:35:03;96253.97;;;10.87;91.22
71105;BME280;58760;48.716;8.962;2023-05-11T01:37:31;96258.66;;;10.85;92.29
71105;BME280;58760;48.716;8.962;2023-05-11T01:39:58;96258.00;;;10.83;91.19
71105;BME280;58760;48.716;8.962;2023-05-11T01:42:37;96259.47;;;10.85;90.80
71105;BME280;58760;48.716;8.962;2023-05-11T01:45:05;96261.84;;;10.80;91.83
71105;BME280;58760;48.716;8.962;2023-05-11T01:47:32;96258.34;;;10.80;91.96
71105;BME280;58760;48.716;8.962;2023-05-11T01:50:01;96259.03;;;10.82;91.22
71105;BME280;58760;48.716;8.962;2023-05-11T01:52:29;96256.09;;;10.91;91.53
71105;BME280;58760;48.716;8.962;2023-05-11T01:54:56;96257.00;;;10.84;91.39
71105;BME280;58760;48.716;8.962;2023-05-11T01:57:24;96256.00;;;10.85;92.42
71105;BME280;58760;48.716;8.962;2023-05-11T01:59:51;96256.53;;;10.80;91.49
71105;BME280;58760;48.716;8.962;2023-05-11T02:02:18;96266.16;;;10.81;91.68
71105;BME280;58760;48.716;8.962;2023-05-11T02:04:44;96259.03;;;10.82;92.05
71105;BME280;58760;48.716;8.962;2023-05-11T02:07:12;96260.94;;;10.88;91.32
71105;BME280;58760;48.716;8.962;2023-05-11T02:09:38;96260.84;;;10.81;91.56
71105;BME280;58760;48.716;8.962;2023-05-11T02:12:05;96261.00;;;10.80;91.22
71105;BME280;58760;48.716;8.962;2023-05-11T02:14:33;96263.97;;;10.85;90.25
71105;BME280;58760;48.716;8.962;2023-05-11T02:17:00;96262.50;;;10.97;89.77
71105;BME280;58760;48.716;8.962;2023-05-11T02:19:28;96263.25;;;10.91;89.92
71105;BME280;58760;48.716;8.962;2023-05-11T02:21:55;96259.84;;;10.82;90.62
71105;BME280;58760;48.716;8.962;2023-05-11T02:24:22;96265.63;;;10.86;92.14
71105;BME280;58760;48.716;8.962;2023-05-11T02:26:48;96269.19;;;10.93;93.28
71105;BME280;58760;48.716;8.962;2023-05-11T02:29:14;96269.63;;;10.82;94.22
71105;BME280;58760;48.716;8.962;2023-05-11T02:31:43;96261.66;;;10.82;94.59
71105;BME280;58760;48.716;8.962;2023-05-11T02:34:17;96268.50;;;10.76;94.29
71105;BME280;58760;48.716;8.962;2023-05-11T02:36:47;96268.19;;;10.79;94.71
71105;BME280;58760;48.716;8.962;2023-05-11T02:39:16;96268.69;;;10.75;94.17
71105;BME280;58760;48.716;8.962;2023-05-11T02:41:46;96265.84;;;10.76;94.71
71105;BME280;58760;48.716;8.962;2023-05-11T02:44:14;96263.19;;;10.76;94.94
71105;BME280;58760;48.716;8.962;2023-05-11T02:46:42;96262.50;;;10.82;95.27
71105;BME280;58760;48.716;8.962;2023-05-11T02:49:09;96267.63;;;10.84;94.51
71105;BME280;58760;48.716;8.962;2023-05-11T02:51:36;96265.94;;;10.83;94.75
71105;BME280;58760;48.716;8.962;2023-05-11T02:54:05;96268.44;;;10.84;95.11
71105;BME280;58760;48.716;8.962;2023-05-11T02:56:31;96263.25;;;10.91;94.04
71105;BME280;58760;48.716;8.962;2023-05-11T02:58:57;96259.47;;;10.85;95.25
71105;BME280;58760;48.716;8.962;2023-05-11T03:01:23;96263.97;;;10.85;95.92
71105;BME280;58760;48.716;8.962;2023-05-11T03:03:49;96255.00;;;10.86;95.79
71105;BME280;58760;48.716;8.962;2023-05-11T03:06:15;96261.00;;;10.80;96.14
71105;BME280;58760;48.716;8.962;2023-05-11T03:08:41;96258.91;;;10.75;97.04
71105;BME280;58760;48.716;8.962;2023-05-11T03:11:08;96259.91;;;10.74;97.71
71105;BME280;58760;48.716;8.962;2023-05-11T03:13:33;96252.47;;;10.70;98.04
71105;BME280;58760;48.716;8.962;2023-05-11T03:15:59;96249.81;;;10.70;97.95
71105;BME280;58760;48.716;8.962;2023-05-11T03:18:27;96254.81;;;10.73;97.53
71105;BME280;58760;48.716;8.962;2023-05-11T03:20:54;96254.69;;;10.66;98.21
71105;BME280;58760;48.716;8.962;2023-05-11T03:23:20;96250.50;;;10.72;98.33
71105;BME280;58760;48.716;8.962;2023-05-11T03:25:46;96244.25;;;10.65;98.31
71105;BME280;58760;48.716;8.962;2023-05-11T03:28:12;96252.84;;;10.67;98.65
71105;BME280;58760;48.716;8.962;2023-05-11T03:30:39;96258.50;;;10.64;98.63
71105;BME280;58760;48.716;8.962;2023-05-11T03:33:04;96250.56;;;10.64;98.93
71105;BME280;58760;48.716;8.962;2023-05-11T03:35:32;96246.44;;;10.61;98.76
71105;BME280;58760;48.716;8.962;2023-05-11T03:37:59;96254.03;;;10.64;98.60
71105;BME280;58760;48.716;8.962;2023-05-11T03:40:25;96245.34;;;10.70;98.53
71105;BME280;58760;48.716;8.962;2023-05-11T03:42:54;96243.25;;;10.66;98.14
71105;BME280;58760;48.716;8.962;2023-05-11T03:45:21;96249.56;;;10.65;97.86
71105;BME280;58760;48.716;8.962;2023-05-11T03:47:47;96239.94;;;10.64;98.51
71105;BME280;58760;48.716;8.962;2023-05-11T03:50:14;96245.44;;;10.77;96.93
71105;BME280;58760;48.716;8.962;2023-05-11T03:52:40;96238.13;;;10.64;96.95
71105;BME280;58760;48.716;8.962;2023-05-11T03:55:07;96246.06;;;10.64;97.41
71105;BME280;58760;48.716;8.962;2023-05-11T03:57:33;96234.25;;;10.67;96.29
71105;BME280;58760;48.716;8.962;2023-05-11T03:59:59;96238.31;;;10.77;96.72
71105;BME280;58760;48.716;8.962;2023-05-11T04:02:24;96234.56;;;10.72;95.73
71105;BME280;58760;48.716;8.962;2023-05-11T04:04:50;96235.56;;;10.71;96.22
71105;BME280;58760;48.716;8.962;2023-05-11T04:07:17;96235.28;;;10.66;96.17
71105;BME280;58760;48.716;8.962;2023-05-11T04:09:42;96233.78;;;10.63;95.65
71105;BME280;58760;48.716;8.962;2023-05-11T04:12:08;96231.34;;;10.62;96.11
71105;BME280;58760;48.716;8.962;2023-05-11T04:14:33;96236.03;;;10.60;96.31
71105;BME280;58760;48.716;8.962;2023-05-11T04:16:58;96232.53;;;10.59;96.10
71105;BME280;58760;48.716;8.962;2023-05-11T04:19:24;96233.38;;;10.60;96.13
71105;BME280;58760;48.716;8.962;2023-05-11T04:21:49;96234.63;;;10.64;95.80
71105;BME280;58760;48.716;8.962;2023-05-11T04:24:15;96234.00;;;10.62;96.04
71105;BME280;58760;48.716;8.962;2023-05-11T04:26:40;96236.66;;;10.62;95.68
71105;BME280;58760;48.716;8.962;2023-05-11T04:29:05;96236.44;;;10.63;95.81
71105;BME280;58760;48.716;8.962;2023-05-11T04:31:31;96232.69;;;10.58;96.00
71105;BME280;58760;48.716;8.962;2023-05-11T04:33:56;96237.03;;;10.73;95.60
71105;BME280;58760;48.716;8.962;2023-05-11T04:36:21;96241.69;;;10.71;94.93
71105;BME280;58760;48.716;8.962;2023-05-11T04:38:47;96239.88;;;10.72;94.59
71105;BME280;58760;48.716;8.962;2023-05-11T04:41:12;96239.94;;;10.64;95.20
71105;BME280;58760;48.716;8.962;2023-05-11T04:43:39;96234.25;;;10.67;95.16
71105;BME280;58760;48.716;8.962;2023-05-11T04:46:04;96244.53;;;10.70;95.63
71105;BME280;58760;48.716;8.962;2023-05-11T04:48:29;96246.13;;;10.79;94.58
71105;BME280;58760;48.716;8.962;2023-05-11T04:50:55;96248.75;;;10.79;94.65
71105;BME280;58760;48.716;8.962;2023-05-11T04:53:21;96248.97;;;11.07;93.05
71105;BME280;58760;48.716;8.962;2023-05-11T04:55:46;96250.03;;;10.83;93.66
71105;BME280;58760;48.716;8.962;2023-05-11T04:58:12;96248.03;;;10.99;94.14
71105;BME280;58760;48.716;8.962;2023-05-11T05:00:37;96244.84;;;11.04;92.65
71105;BME280;58760;48.716;8.962;2023-05-11T05:03:03;96243.19;;;11.03;94.20
71105;BME280;58760;48.716;8.962;2023-05-11T05:05:28;96249.97;;;11.06;94.58
71105;BME280;58760;48.716;8.962;2023-05-11T05:07:54;96251.25;;;10.95;94.03
71105;BME280;58760;48.716;8.962;2023-05-11T05:10:19;96247.06;;;11.15;92.90
71105;BME280;58760;48.716;8.962;2023-05-11T05:12:46;96249.06;;;10.98;93.98
71105;BME280;58760;48.716;8.962;2023-05-11T05:15:11;96245.66;;;10.90;94.17
71105;BME280;58760;48.716;8.962;2023-05-11T05:17:37;96249.69;;;11.00;93.96
71105;BME280;58760;48.716;8.962;2023-05-11T05:20:03;96247.94;;;10.93;94.54
71105;BME280;58760;48.716;8.962;2023-05-11T05:22:28;96247.88;;;11.01;94.89
71105;BME280;58760;48.716;8.962;2023-05-11T05:24:54;96250.06;;;11.12;94.45
71105;BME280;58760;48.716;8.962;2023-05-11T05:27:19;96244.31;;;11.09;95.07
71105;BME280;58760;48.716;8.962;2023-05-11T05:29:45;96251.16;;;11.03;94.97
71105;BME280;58760;48.716;8.962;2023-05-11T05:32:10;96251.97;;;11.03;94.16
71105;BME280;58760;48.716;8.962;2023-05-11T05:34:35;96255.19;;;11.14;93.32
71105;BME280;58760;48.716;8.962;2023-05-11T05:37:01;96256.66;;;11.31;92.40
71105;BME280;58760;48.716;8.962;2023-05-11T05:39:26;96251.81;;;11.20;91.93
71105;BME280;58760;48.716;8.962;2023-05-11T05:41:51;96256.28;;;11.34;91.98
71105;BME280;58760;48.716;8.962;2023-05-11T05:44:17;96264.34;;;11.40;91.13
71105;BME280;58760;48.716;8.962;2023-05-11T05:46:42;96262.06;;;11.23;92.45
71105;BME280;58760;48.716;8.962;2023-05-11T05:49:07;96259.31;;;11.31;92.22
71105;BME280;58760;48.716;8.962;2023-05-11T05:51:33;96258.13;;;11.33;91.42
71105;BME280;58760;48.716;8.962;2023-05-11T05:53:58;96252.53;;;11.43;91.19
71105;BME280;58760;48.716;8.962;2023-05-11T05:56:23;96251.53;;;11.44;90.84
71105;BME280;58760;48.716;8.962;2023-05-11T05:58:50;96257.47;;;11.46;90.51
71105;BME280;58760;48.716;8.962;2023-05-11T06:01:15;96256.09;;;11.50;90.24
71105;BME280;58760;48.716;8.962;2023-05-11T06:03:41;96248.13;;;11.50;90.29
71105;BME280;58760;48.716;8.962;2023-05-11T06:06:06;96254.28;;;11.50;90.78
71105;BME280;58760;48.716;8.962;2023-05-11T06:08:32;96263.25;;;11.49;90.19
71105;BME280;58760;48.716;8.962;2023-05-11T06:10:58;96260.13;;;11.61;89.40
71105;BME280;58760;48.716;8.962;2023-05-11T06:13:23;96266.25;;;11.76;88.74
71105;BME280;58760;48.716;8.962;2023-05-11T06:15:48;96259.94;;;11.77;87.19
71105;BME280;58760;48.716;8.962;2023-05-11T06:18:14;96258.81;;;11.86;87.10
71105;BME280;58760;48.716;8.962;2023-05-11T06:20:39;96254.63;;;11.77;88.53
71105;BME280;58760;48.716;8.962;2023-05-11T06:23:05;96256.91;;;11.80;87.28
71105;BME280;58760;48.716;8.962;2023-05-11T06:25:35;96260.38;;;11.80;87.58
71105;BME280;58760;48.716;8.962;2023-05-11T06:28:01;96255.34;;;11.71;88.85
71105;BME280;58760;48.716;8.962;2023-05-11T06:30:27;96262.22;;;11.80;88.13
71105;BME280;58760;48.716;8.962;2023-05-11T06:32:53;96255.63;;;11.76;89.13
71105;BME280;58760;48.716;8.962;2023-05-11T06:35:18;96264.88;;;11.80;87.83
71105;BME280;58760;48.716;8.962;2023-05-11T06:37:43;96258.69;;;11.94;87.22
71105;BME280;58760;48.716;8.962;2023-05-11T06:40:09;96256.91;;;12.01;85.29
71105;BME280;58760;48.716;8.962;2023-05-11T06:42:34;96266.34;;;12.03;86.06
71105;BME280;58760;48.716;8.962;2023-05-11T06:45:00;96258.59;;;12.02;86.04
71105;BME280;58760;48.716;8.962;2023-05-11T06:47:25;96263.25;;;12.00;85.86
71105;BME280;58760;48.716;8.962;2023-05-11T06:49:51;96264.00;;;11.94;86.92
71105;BME280;58760;48.716;8.962;2023-05-11T06:52:16;96264.06;;;12.00;85.68
71105;BME280;58760;48.716;8.962;2023-05-11T06:54:41;96258.81;;;12.07;86.76
71105;BME280;58760;48.716;8.962;2023-05-11T06:57:07;96256.22;;;12.14;86.09
71105;BME280;58760;48.716;8.962;2023-05-11T06:59:32;96257.97;;;12.21;84.62
71105;BME280;58760;48.716;8.962;2023-05-11T07:01:58;96253.25;;;12.23;84.10
71105;BME280;58760;48.716;8.962;2023-05-11T07:04:23;96265.56;;;12.24;85.27
71105;BME280;58760;48.716;8.962;2023-05-11T07:06:49;96264.56;;;12.25;83.23
71105;BME280;58760;48.716;8.962;2023-05-11T07:09:14;96253.19;;;12.17;85.06
71105;BME280;58760;48.716;8.962;2023-05-11T07:11:40;96270.31;;;12.29;83.95
71105;BME280;58760;48.716;8.962;2023-05-11T07:14:05;96271.56;;;12.33;85.01
71105;BME280;58760;48.716;8.962;2023-05-11T07:16:35;96268.25;;;12.52;84.29
71105;BME280;58760;48.716;8.962;2023-05-11T07:19:04;96265.44;;;12.53;84.09
71105;BME280;58760;48.716;8.962;2023-05-11T07:21:30;96272.53;;;12.46;83.24
71105;BME280;58760;48.716;8.962;2023-05-11T07:23:57;96270.88;;;12.24;82.25
71105;BME280;58760;48.716;8.962;2023-05-11T07:26:22;96271.13;;;12.29;84.89
71105;BME280;58760;48.716;8.962;2023-05-11T07:28:47;96274.88;;;12.35;83.95
71105;BME280;58760;48.716;8.962;2023-05-11T07:31:13;96271.63;;;12.39;84.05
71105;BME280;58760;48.716;8.962;2023-05-11T07:33:38;96279.34;;;12.55;83.64
71105;BME280;58760;48.716;8.962;2023-05-11T07:36:05;96280.66;;;12.38;84.91
71105;BME280;58760;48.716;8.962;2023-05-11T07:38:30;96280.31;;;12.27;83.02
71105;BME280;58760;48.716;8.962;2023-05-11T07:40:56;96278.59;;;12.40;84.74
71105;BME280;58760;48.716;8.962;2023-05-11T07:43:21;96285.25;;;12.30;85.30
71105;BME280;58760;48.716;8.962;2023-05-11T07:45:46;96271.94;;;12.30;86.43
71105;BME280;58760;48.716;8.962;2023-05-11T07:48:12;96280.81;;;12.37;85.09
71105;BME280;58760;48.716;8.962;2023-05-11T07:50:37;96277.84;;;12.46;85.43
71105;BME280;58760;48.716;8.962;2023-05-11T07:53:03;96273.28;;;12.40;85.03
71105;BME280;58760;48.716;8.962;2023-05-11T07:55:28;96276.38;;;12.65;83.61
71105;BME280;58760;48.716;8.962;2023-05-11T07:57:54;96276.19;;;12.45;84.85
71105;BME280;58760;48.716;8.962;2023-05-11T08:00:20;96278.59;;;12.62;83.34
71105;BME280;58760;48.716;8.962;2023-05-11T08:02:46;96274.84;;;12.56;83.87
71105;BME280;58760;48.716;8.962;2023-05-11T08:05:11;96274.75;;;12.64;85.42
71105;BME280;58760;48.716;8.962;2023-05-11T08:07:37;96271.47;;;12.69;84.96
71105;BME280;58760;48.716;8.962;2023-05-11T08:10:02;96273.25;;;12.62;85.45
71105;BME280;58760;48.716;8.962;2023-05-11T08:12:27;96281.63;;;12.58;83.74
71105;BME280;58760;48.716;8.962;2023-05-11T08:14:53;96275.28;;;12.81;83.19
71105;BME280;58760;48.716;8.962;2023-05-11T08:17:19;96277.41;;;12.64;83.52
71105;BME280;58760;48.716;8.962;2023-05-11T08:19:44;96282.66;;;12.57;85.23
71105;BME280;58760;48.716;8.962;2023-05-11T08:22:10;96273.19;;;12.76;86.34
71105;BME280;58760;48.716;8.962;2023-05-11T08:24:35;96280.78;;;12.79;85.54
71105;BME280;58760;48.716;8.962;2023-05-11T08:27:00;96275.69;;;12.84;81.52
71105;BME280;58760;48.716;8.962;2023-05-11T08:29:26;96281.63;;;12.80;83.40
71105;BME280;58760;48.716;8.962;2023-05-11T08:31:52;96273.63;;;12.80;81.94
71105;BME280;58760;48.716;8.962;2023-05-11T08:34:17;96277.56;;;12.84;81.77
71105;BME280;58760;48.716;8.962;2023-05-11T08:36:43;96276.75;;;12.83;83.39
71105;BME280;58760;48.716;8.962;2023-05-11T08:39:09;96282.56;;;12.93;83.30
71105;BME280;58760;48.716;8.962;2023-05-11T08:41:34;96278.50;;;13.04;81.21
71105;BME280;58760;48.716;8.962;2023-05-11T08:44:00;96276.28;;;13.07;80.72
71105;BME280;58760;48.716;8.962;2023-05-11T08:46:28;96277.13;;;13.08;82.10
71105;BME280;58760;48.716;8.962;2023-05-11T08:48:54;96275.75;;;13.12;83.15
71105;BME280;58760;48.716;8.962;2023-05-11T08:51:21;96276.97;;;13.09;80.20
71105;BME280;58760;48.716;8.962;2023-05-11T08:53:47;96273.63;;;13.07;79.94
71105;BME280;58760;48.716;8.962;2023-05-11T08:56:14;96279.41;;;13.11;79.59
71105;BME280;58760;48.716;8.962;2023-05-11T08:58:40;96276.75;;;13.11;80.03
71105;BME280;58760;48.716;8.962;2023-05-11T09:01:09;96274.00;;;13.04;79.56
71105;BME280;58760;48.716;8.962;2023-05-11T09:03:35;96273.25;;;13.10;80.68
71105;BME280;58760;48.716;8.962;2023-05-11T09:06:03;96276.81;;;13.18;80.03
71105;BME280;58760;48.716;8.962;2023-05-11T09:08:33;96278.25;;;13.20;78.14
71105;BME280;58760;48.716;8.962;2023-05-11T09:10:58;96280.56;;;13.23;79.73
71105;BME280;58760;48.716;8.962;2023-05-11T09:13:24;96278.94;;;13.29;79.06
71105;BME280;58760;48.716;8.962;2023-05-11T09:15:50;96280.91;;;13.20;81.08
71105;BME280;58760;48.716;8.962;2023-05-11T09:18:16;96272.34;;;13.25;79.27
71105;BME280;58760;48.716;8.962;2023-05-11T09:20:42;96277.44;;;13.20;80.32
71105;BME280;58760;48.716;8.962;2023-05-11T09:23:08;96277.28;;;13.28;79.18
71105;BME280;58760;48.716;8.962;2023-05-11T09:25:34;96277.72;;;13.31;81.37
71105;BME280;58760;48.716;8.962;2023-05-11T09:28:03;96265.78;;;13.27;79.83
71105;BME280;58760;48.716;8.962;2023-05-11T09:30:28;96277.28;;;13.28;80.21
71105;BME280;58760;48.716;8.962;2023-05-11T09:32:55;96275.28;;;13.36;78.93
71105;BME280;58760;48.716;8.962;2023-05-11T09:38:08;96273.75;;;13.21;77.33
71105;BME280;58760;48.716;8.962;2023-05-11T09:43:16;96274.09;;;13.39;78.16
71105;BME280;58760;48.716;8.962;2023-05-11T09:45:51;96274.66;;;13.34;76.98
71105;BME280;58760;48.716;8.962;2023-05-11T09:50:47;96271.81;;;13.36;78.23
71105;BME280;58760;48.716;8.962;2023-05-11T09:53:13;96272.84;;;13.41;78.22
71105;BME280;58760;48.716;8.962;2023-05-11T09:55:49;96281.06;;;13.46;77.22
71105;BME280;58760;48.716;8.962;2023-05-11T09:58:15;96276.38;;;13.48;75.95
71105;BME280;58760;48.716;8.962;2023-05-11T10:00:50;96271.44;;;13.45;76.67
71105;BME280;58760;48.716;8.962;2023-05-11T10:03:16;96276.38;;;13.48;76.76
71105;BME280;58760;48.716;8.962;2023-05-11T10:05:55;96277.06;;;13.63;76.08
71105;BME280;58760;48.716;8.962;2023-05-11T10:08:31;96276.25;;;13.63;75.24
71105;BME280;58760;48.716;8.962;2023-05-11T10:11:00;96266.00;;;13.67;75.25
71105;BME280;58760;48.716;8.962;2023-05-11T10:13:26;96268.03;;;13.58;75.09
71105;BME280;58760;48.716;8.962;2023-05-11T10:15:53;96269.31;;;13.69;75.45
71105;BME280;58760;48.716;8.962;2023-05-11T10:18:19;96263.38;;;13.73;75.34
71105;BME280;58760;48.716;8.962;2023-05-11T10:20:45;96268.97;;;13.85;73.72
71105;BME280;58760;48.716;8.962;2023-05-11T10:23:11;96271.63;;;13.85;75.34
71105;BME280;58760;48.716;8.962;2023-05-11T10:25:38;96274.28;;;13.78;74.53
71105;BME280;58760;48.716;8.962;2023-05-11T10:28:04;96268.53;;;13.75;75.59
71105;BME280;58760;48.716;8.962;2023-05-11T10:30:32;96275.94;;;13.86;75.52
71105;BME280;58760;48.716;8.962;2023-05-11T10:33:00;96261.34;;;13.75;75.59
71105;BME280;58760;48.716;8.962;2023-05-11T10:35:26;96265.69;;;13.89;73.25
71105;BME280;58760;48.716;8.962;2023-05-11T10:37:51;96262.41;;;13.87;74.53
71105;BME280;58760;48.716;8.962;2023-05-11T10:40:17;96260.16;;;13.91;75.41
71105;BME280;58760;48.716;8.962;2023-05-11T10:43:02;96265.31;;;13.99;76.04
71105;BME280;58760;48.716;8.962;2023-05-11T10:46:04;96260.97;;;13.85;75.28
71105;BME280;58760;48.716;8.962;2023-05-11T10:48:47;96262.78;;;13.78;74.80
71105;BME280;58760;48.716;8.962;2023-05-11T10:57:47;96252.03;;;13.58;73.17
71105;BME280;58760;48.716;8.962;2023-05-11T11:00:48;96254.59;;;13.86;73.93
71105;BME280;58760;48.716;8.962;2023-05-11T11:03:20;96263.84;;;13.90;69.73
71105;BME280;58760;48.716;8.962;2023-05-11T11:05:45;96254.63;;;13.99;68.55
71105;BME280;58760;48.716;8.962;2023-05-11T11:08:12;96243.97;;;14.05;67.67
71105;BME280;58760;48.716;8.962;2023-05-11T11:13:09;96243.44;;;14.30;67.45
71105;BME280;58760;48.716;8.962;2023-05-11T11:18:22;96250.88;;;14.60;64.39
71105;BME280;58760;48.716;8.962;2023-05-11T11:20:49;96241.63;;;14.76;63.31
71105;BME280;58760;48.716;8.962;2023-05-11T11:26:06;96248.63;;;14.90;64.55
71105;BME280;58760;48.716;8.962;2023-05-11T11:31:31;96237.50;;;15.00;65.18
71105;BME280;58760;48.716;8.962;2023-05-11T11:33:58;96233.78;;;15.27;65.11
71105;BME280;58760;48.716;8.962;2023-05-11T11:39:44;96238.88;;;15.35;64.13
71105;BME280;58760;48.716;8.962;2023-05-11T11:42:11;96236.41;;;15.40;62.51
71105;BME280;58760;48.716;8.962;2023-05-11T11:44:38;96242.38;;;15.42;60.61
71105;BME280;58760;48.716;8.962;2023-05-11T11:47:20;96236.00;;;15.43;63.72
71105;BME280;58760;48.716;8.962;2023-05-11T11:49:50;96236.78;;;15.63;62.30
71105;BME280;58760;48.716;8.962;2023-05-11T11:54:54;96238.88;;;15.42;63.13
71105;BME280;58760;48.716;8.962;2023-05-11T12:00:05;96233.94;;;15.39;62.94
71105;BME280;58760;48.716;8.962;2023-05-11T12:02:39;96237.03;;;15.42;58.85
71105;BME280;58760;48.716;8.962;2023-05-11T12:05:16;96236.22;;;15.35;59.18
71105;BME280;58760;48.716;8.962;2023-05-11T12:07:50;96226.75;;;15.39;58.97
71105;BME280;58760;48.716;8.962;2023-05-11T12:10:17;96227.16;;;15.43;60.30
71105;BME280;58760;48.716;8.962;2023-05-11T12:12:44;96215.59;;;15.62;57.79
71105;BME280;58760;48.716;8.962;2023-05-11T12:15:22;96217.84;;;15.65;56.88
71105;BME280;58760;48.716;8.962;2023-05-11T12:17:48;96218.88;;;15.64;58.00
71105;BME280;58760;48.716;8.962;2023-05-11T12:20:15;96215.59;;;15.62;58.85
71105;BME280;58760;48.716;8.962;2023-05-11T12:22:42;96224.22;;;15.64;58.52
71105;BME280;58760;48.716;8.962;2023-05-11T12:25:09;96225.81;;;15.78;58.15
71105;BME280;58760;48.716;8.962;2023-05-11T12:30:28;96214.06;;;16.17;57.71
71105;BME280;58760;48.716;8.962;2023-05-11T12:32:54;96211.31;;;16.30;56.45
71105;BME280;58760;48.716;8.962;2023-05-11T12:35:28;96214.50;;;16.14;58.74
71105;BME280;58760;48.716;8.962;2023-05-11T12:37:54;96208.47;;;16.25;57.18
71105;BME280;58760;48.716;8.962;2023-05-11T12:40:20;96213.13;;;16.36;55.01
71105;BME280;58760;48.716;8.962;2023-05-11T12:42:50;96209.59;;;16.11;55.12
71105;BME280;58760;48.716;8.962;2023-05-11T12:45:17;96206.38;;;15.96;56.86
71105;BME280;58760;48.716;8.962;2023-05-11T12:47:43;96211.19;;;15.81;56.77
71105;BME280;58760;48.716;8.962;2023-05-11T12:50:09;96196.78;;;15.82;60.27
71105;BME280;58760;48.716;8.962;2023-05-11T12:52:34;96201.28;;;15.88;58.44
71105;BME280;58760;48.716;8.962;2023-05-11T12:55:00;96203.94;;;15.88;57.57
71105;BME280;58760;48.716;8.962;2023-05-11T12:57:27;96196.59;;;15.77;58.09
71105;BME280;58760;48.716;8.962;2023-05-11T13:02:49;96189.91;;;15.41;58.30
71105;BME280;58760;48.716;8.962;2023-05-11T13:05:15;96193.69;;;15.27;58.81
71105;BME280;58760;48.716;8.962;2023-05-11T13:07:40;96193.50;;;15.09;59.77
71105;BME280;58760;48.716;8.962;2023-05-11T13:10:09;96189.00;;;15.03;59.94
71105;BME280;58760;48.716;8.962;2023-05-11T13:12:46;96184.06;;;15.00;60.26
71105;BME280;58760;48.716;8.962;2023-05-11T13:15:12;96179.03;;;15.36;59.34
71105;BME280;58760;48.716;8.962;2023-05-11T13:17:39;96175.50;;;15.55;58.72
71105;BME280;58760;48.716;8.962;2023-05-11T13:20:18;96180.13;;;15.80;57.56
71105;BME280;58760;48.716;8.962;2023-05-11T13:22:45;96172.94;;;16.11;58.24
71105;BME280;58760;48.716;8.962;2023-05-11T13:25:13;96168.56;;;16.17;55.49
71105;BME280;58760;48.716;8.962;2023-05-11T13:27:39;96176.94;;;16.27;55.85
71105;BME280;58760;48.716;8.962;2023-05-11T13:30:05;96175.13;;;16.21;54.70
71105;BME280;58760;48.716;8.962;2023-05-11T13:32:30;96166.56;;;16.37;54.87
71105;BME280;58760;48.716;8.962;2023-05-11T13:34:56;96169.91;;;16.64;54.59
71105;BME280;58760;48.716;8.962;2023-05-11T13:37:21;96172.47;;;16.77;53.55
71105;BME280;58760;48.716;8.962;2023-05-11T13:39:46;96167.16;;;16.70;52.44
71105;BME280;58760;48.716;8.962;2023-05-11T13:42:12;96170.44;;;16.72;54.39
71105;BME280;58760;48.716;8.962;2023-05-11T13:44:37;96163.28;;;16.85;52.95
71105;BME280;58760;48.716;8.962;2023-05-11T13:47:03;96162.19;;;16.92;54.24